< < Back
Terminal Aerodrome Forecast


Current Version              Previous Versions:   1  2  3  4  5  6  7  8  9  

Terminal Aerodrome Forecast

650
FTUS42 KTAE 022320
TAFDHN
TAF
KDHN 022320Z 0300/0324 14004KT P6SM SKC=

Latest METAR

356
SAUS70 KWBC 032300 RRB
MTRDHN
METAR KDHN 032253Z 15005KT 10SM FEW075 26/09 A3015 RMK AO2 SLP204
T02560094


USA.gov is the U.S. government's official web portal to all federal, state and local government web resources and services.